createdAt,value
2022-12-31T00:02:19.599Z,5.85
2022-12-31T00:04:49.160Z,13.73
2022-12-31T00:07:19.992Z,6.47
2022-12-31T00:09:50.539Z,15.05
2022-12-31T00:12:21.637Z,15.45
2022-12-31T00:14:49.367Z,9.15
2022-12-31T00:17:17.050Z,10.38
2022-12-31T00:19:45.414Z,13.18
2022-12-31T00:22:14.971Z,9.80
2022-12-31T00:24:45.523Z,16.05
2022-12-31T00:27:16.355Z,15.63
2022-12-31T00:29:44.665Z,13.20
2022-12-31T00:32:12.683Z,10.82
2022-12-31T00:34:40.503Z,12.48
2022-12-31T00:37:09.302Z,8.63
2022-12-31T00:39:37.135Z,12.32
2022-12-31T00:42:07.408Z,16.80
2022-12-31T00:44:36.295Z,23.88
2022-12-31T00:47:04.921Z,16.42
2022-12-31T00:49:34.811Z,10.75
2022-12-31T00:52:05.308Z,13.30
2022-12-31T00:54:38.218Z,26.92
2022-12-31T00:57:07.075Z,13.15
2022-12-31T00:59:34.975Z,16.33
2022-12-31T01:02:02.835Z,15.95
2022-12-31T01:04:41.187Z,26.65
2022-12-31T01:07:12.880Z,17.30
2022-12-31T01:09:43.674Z,22.42
2022-12-31T01:12:11.672Z,11.35
2022-12-31T01:14:39.504Z,11.70
2022-12-31T01:17:07.295Z,14.85
2022-12-31T01:20:08.626Z,15.07
2022-12-31T01:22:38.780Z,13.30
2022-12-31T01:25:07.149Z,15.82
2022-12-31T01:27:41.984Z,16.73
2022-12-31T01:30:10.311Z,12.95
2022-12-31T01:32:38.802Z,20.10
2022-12-31T01:35:06.885Z,20.23
2022-12-31T01:37:40.320Z,17.88
2022-12-31T01:40:20.260Z,16.45
2022-12-31T01:43:06.386Z,18.08
2022-12-31T01:45:36.601Z,18.50
2022-12-31T01:48:21.530Z,21.30
2022-12-31T01:50:50.043Z,16.58
2022-12-31T01:53:19.021Z,19.90
2022-12-31T01:55:52.942Z,24.98
2022-12-31T01:58:45.041Z,14.02
2022-12-31T02:01:23.473Z,14.32
2022-12-31T02:03:52.253Z,11.20
2022-12-31T02:06:53.266Z,23.60
2022-12-31T02:09:23.774Z,14.80
2022-12-31T02:14:25.484Z,14.15
2022-12-31T02:17:24.856Z,16.02
2022-12-31T02:20:30.327Z,20.50
2022-12-31T02:23:16.702Z,16.75
2022-12-31T02:25:52.997Z,17.70
2022-12-31T02:28:55.052Z,12.30
2022-12-31T02:31:32.882Z,15.65
2022-12-31T02:34:13.596Z,12.02
2022-12-31T02:36:48.128Z,11.68
2022-12-31T02:39:16.889Z,12.85
2022-12-31T02:41:52.599Z,11.02
2022-12-31T02:44:37.158Z,15.80
2022-12-31T02:47:21.866Z,7.65
2022-12-31T02:50:30.326Z,10.45
2022-12-31T02:53:01.246Z,8.93
2022-12-31T02:55:35.240Z,6.45
2022-12-31T02:58:48.924Z,13.90
2022-12-31T03:01:43.435Z,8.10
2022-12-31T03:04:34.338Z,4.40
2022-12-31T03:07:09.457Z,9.40
2022-12-31T03:09:40.666Z,13.80
2022-12-31T03:12:28.822Z,5.97
2022-12-31T03:14:59.414Z,7.40
2022-12-31T03:20:20.424Z,2.97
2022-12-31T03:23:10.819Z,10.23
2022-12-31T03:25:44.333Z,8.52
2022-12-31T03:28:16.353Z,4.53
2022-12-31T03:30:49.364Z,4.13
2022-12-31T03:33:20.697Z,5.78
2022-12-31T03:35:52.811Z,4.30
2022-12-31T03:38:23.510Z,1.98
2022-12-31T03:40:53.249Z,1.90
2022-12-31T03:43:32.586Z,3.92
2022-12-31T03:46:14.893Z,3.47
2022-12-31T03:48:47.065Z,2.78
2022-12-31T03:51:40.888Z,5.25
2022-12-31T03:54:52.787Z,1.15
2022-12-31T03:57:35.341Z,0.95
2022-12-31T04:01:33.516Z,0.40
2022-12-31T04:04:13.760Z,3.13
2022-12-31T04:09:59.391Z,0.38
2022-12-31T04:12:44.665Z,0.55
2022-12-31T04:15:20.699Z,0.65
2022-12-31T04:18:22.056Z,0.40
2022-12-31T04:21:22.697Z,0.50
2022-12-31T04:24:17.700Z,0.43
2022-12-31T04:50:20.371Z,4.57
2022-12-31T04:53:14.039Z,6.93
2022-12-31T04:56:32.223Z,7.88
2022-12-31T05:00:10.061Z,4.93
2022-12-31T05:04:19.072Z,7.57
2022-12-31T05:07:00.416Z,16.92
2022-12-31T05:10:26.013Z,16.40
2022-12-31T05:13:16.605Z,17.52
2022-12-31T05:16:17.386Z,20.00
2022-12-31T05:19:09.689Z,17.15
2022-12-31T05:22:11.477Z,15.57
2022-12-31T05:24:53.752Z,18.15
2022-12-31T05:27:28.913Z,11.63
2022-12-31T05:30:14.577Z,14.07
2022-12-31T05:32:49.006Z,16.38
2022-12-31T05:35:25.979Z,15.02
2022-12-31T05:38:03.963Z,14.93
2022-12-31T05:40:34.563Z,16.30
2022-12-31T05:43:02.644Z,17.10
2022-12-31T05:45:33.116Z,14.10
2022-12-31T05:48:05.024Z,15.77
2022-12-31T05:50:35.969Z,13.15
2022-12-31T05:53:07.509Z,14.50
2022-12-31T05:55:40.669Z,10.75
2022-12-31T05:58:16.095Z,10.95
2022-12-31T06:00:52.118Z,20.25
2022-12-31T06:03:23.931Z,13.30
2022-12-31T06:05:57.988Z,15.80
2022-12-31T06:08:25.975Z,14.65
2022-12-31T06:10:55.182Z,18.50
2022-12-31T06:13:23.146Z,14.88
2022-12-31T06:15:53.446Z,16.10
2022-12-31T06:18:21.527Z,13.25
2022-12-31T06:20:52.399Z,15.80
2022-12-31T06:23:21.789Z,19.08
2022-12-31T06:25:50.608Z,25.40
2022-12-31T06:28:24.757Z,22.27
2022-12-31T06:31:08.950Z,16.48
2022-12-31T06:33:37.219Z,22.67
2022-12-31T06:36:09.416Z,20.40
2022-12-31T06:38:43.661Z,19.02
2022-12-31T06:41:13.677Z,23.05
2022-12-31T06:43:43.128Z,23.17
2022-12-31T06:46:13.748Z,18.75
2022-12-31T06:48:44.727Z,22.02
2022-12-31T06:51:17.579Z,17.98
2022-12-31T06:53:56.629Z,21.92
2022-12-31T06:56:33.908Z,14.93
2022-12-31T06:59:05.049Z,20.45
2022-12-31T07:02:15.027Z,16.98
2022-12-31T07:04:57.879Z,23.15
2022-12-31T07:08:10.646Z,17.15
2022-12-31T07:10:53.998Z,19.98
2022-12-31T07:13:49.100Z,22.30
2022-12-31T07:16:30.005Z,22.60
2022-12-31T07:21:42.313Z,16.20
2022-12-31T07:24:20.315Z,15.65
2022-12-31T07:26:56.865Z,14.93
2022-12-31T07:29:27.966Z,13.68
2022-12-31T07:32:18.520Z,10.15
2022-12-31T07:35:34.546Z,15.80
2022-12-31T07:38:24.710Z,15.50
2022-12-31T07:41:10.021Z,10.80
2022-12-31T07:43:41.330Z,9.23
2022-12-31T07:46:47.502Z,13.25
2022-12-31T07:49:30.902Z,20.92
2022-12-31T07:52:00.462Z,16.05
2022-12-31T07:54:40.815Z,26.70
2022-12-31T07:57:17.079Z,18.83
2022-12-31T08:00:06.135Z,22.38
2022-12-31T08:03:27.144Z,12.25
2022-12-31T08:06:46.644Z,31.05
2022-12-31T08:09:39.627Z,18.05
2022-12-31T08:12:17.311Z,17.45
2022-12-31T08:14:51.572Z,19.52
2022-12-31T08:17:23.372Z,15.75
2022-12-31T08:20:00.427Z,20.27
2022-12-31T08:22:55.194Z,25.17
2022-12-31T08:25:53.208Z,19.83
2022-12-31T08:28:55.487Z,22.80
2022-12-31T08:31:53.846Z,19.80
2022-12-31T08:34:50.189Z,18.90
2022-12-31T08:37:51.067Z,22.80
2022-12-31T08:40:41.982Z,18.17
2022-12-31T08:43:44.283Z,22.70
2022-12-31T08:49:27.520Z,20.02
2022-12-31T08:51:56.713Z,22.38
2022-12-31T08:54:25.499Z,18.98
2022-12-31T08:57:30.377Z,26.00
2022-12-31T09:00:11.877Z,24.17
2022-12-31T09:03:24.192Z,20.65
2022-12-31T09:06:31.422Z,22.52
2022-12-31T09:09:47.190Z,24.63
2022-12-31T09:13:07.918Z,23.80
2022-12-31T09:19:39.315Z,24.75
2022-12-31T09:22:17.470Z,22.98
2022-12-31T09:25:17.927Z,25.00
2022-12-31T09:28:38.005Z,22.20
2022-12-31T09:31:44.715Z,26.52
2022-12-31T09:34:26.851Z,29.42
2022-12-31T09:37:05.761Z,22.77
2022-12-31T09:40:19.410Z,27.90
2022-12-31T09:43:07.982Z,28.75
2022-12-31T09:46:17.711Z,28.40
2022-12-31T09:49:06.319Z,25.67
2022-12-31T09:52:08.596Z,33.22
2022-12-31T09:55:05.641Z,24.00
2022-12-31T09:58:42.478Z,21.60
2022-12-31T10:01:58.738Z,20.63
2022-12-31T10:04:57.338Z,26.77
2022-12-31T10:11:16.808Z,21.58
2022-12-31T10:14:32.491Z,19.08
2022-12-31T10:17:34.700Z,31.52
2022-12-31T10:20:27.610Z,21.67
2022-12-31T10:23:43.935Z,15.52
2022-12-31T10:27:06.266Z,13.55
2022-12-31T10:29:43.175Z,17.27
2022-12-31T10:32:16.325Z,12.23
2022-12-31T10:35:31.611Z,12.90
2022-12-31T10:38:20.698Z,12.82
2022-12-31T10:42:02.510Z,14.60
2022-12-31T10:44:53.262Z,7.50
2022-12-31T10:47:58.554Z,12.10
2022-12-31T10:50:51.416Z,6.60
2022-12-31T10:54:05.063Z,8.88
2022-12-31T10:57:01.257Z,10.57
2022-12-31T11:00:32.824Z,3.53
2022-12-31T11:03:58.706Z,4.85
2022-12-31T11:06:58.312Z,6.00
2022-12-31T11:10:16.313Z,5.63
2022-12-31T11:21:40.940Z,2.92
2022-12-31T11:24:39.368Z,8.43
2022-12-31T11:27:59.795Z,5.93
2022-12-31T11:30:58.715Z,5.30
2022-12-31T11:34:11.816Z,9.90
2022-12-31T11:37:03.622Z,4.43
2022-12-31T11:39:51.436Z,5.35
2022-12-31T11:42:50.184Z,4.90
2022-12-31T11:45:48.692Z,2.78
2022-12-31T11:52:57.078Z,3.50
2022-12-31T11:56:52.856Z,0.77
2022-12-31T12:11:01.119Z,4.53
2022-12-31T12:13:44.778Z,8.32
2022-12-31T12:21:32.532Z,8.93
2022-12-31T12:24:39.865Z,20.17
2022-12-31T12:28:10.153Z,16.60
2022-12-31T12:31:11.534Z,23.05
2022-12-31T12:34:59.787Z,18.27
2022-12-31T12:37:42.428Z,15.80
2022-12-31T12:40:34.367Z,18.70
2022-12-31T12:43:47.585Z,21.40
2022-12-31T12:47:14.809Z,20.58
2022-12-31T12:50:05.412Z,17.50
2022-12-31T12:53:27.321Z,12.98
2022-12-31T12:56:45.271Z,20.13
2022-12-31T12:59:43.586Z,17.55
2022-12-31T13:03:34.366Z,12.07
2022-12-31T13:06:55.233Z,18.10
2022-12-31T13:10:20.912Z,13.40
2022-12-31T13:13:36.219Z,17.75
2022-12-31T13:16:39.648Z,18.15
2022-12-31T13:19:27.225Z,13.65
2022-12-31T13:25:57.892Z,21.10
2022-12-31T13:28:47.458Z,15.98
2022-12-31T13:31:21.893Z,22.50
2022-12-31T13:34:58.693Z,20.55
2022-12-31T13:37:49.072Z,17.85
2022-12-31T13:43:58.675Z,17.92
2022-12-31T13:47:42.775Z,19.60
2022-12-31T13:50:38.010Z,27.38
2022-12-31T13:53:41.223Z,24.10
2022-12-31T13:56:29.448Z,24.00
2022-12-31T13:59:37.913Z,29.23
2022-12-31T14:02:46.745Z,25.90
2022-12-31T14:16:30.534Z,18.75
2022-12-31T14:19:02.204Z,22.27
2022-12-31T14:21:54.199Z,18.45
2022-12-31T14:24:52.730Z,18.63
2022-12-31T14:27:36.942Z,27.17
2022-12-31T14:30:23.494Z,25.52
2022-12-31T14:33:31.994Z,22.90
2022-12-31T14:36:41.978Z,16.40
2022-12-31T14:39:43.702Z,29.00
2022-12-31T14:42:57.613Z,26.98
2022-12-31T14:45:33.035Z,27.88
2022-12-31T14:48:33.368Z,35.47
2022-12-31T14:51:05.820Z,27.08
2022-12-31T14:53:37.276Z,24.15
2022-12-31T14:56:40.498Z,35.78
2022-12-31T15:00:00.557Z,39.83
2022-12-31T15:05:27.107Z,37.10
2022-12-31T15:08:27.396Z,46.13
2022-12-31T15:11:55.040Z,38.88
2022-12-31T15:15:03.175Z,46.17
2022-12-31T15:22:13.432Z,44.47
2022-12-31T15:25:07.012Z,41.80
2022-12-31T15:27:50.253Z,30.90
2022-12-31T15:30:53.079Z,34.55
2022-12-31T15:33:38.141Z,40.92
2022-12-31T15:36:23.965Z,37.45
2022-12-31T15:40:14.912Z,37.35
2022-12-31T15:43:29.831Z,47.35
2022-12-31T15:46:30.696Z,36.55
2022-12-31T15:49:33.385Z,43.45
2022-12-31T15:52:19.621Z,56.08
2022-12-31T15:55:01.115Z,42.25
2022-12-31T15:57:52.435Z,39.05
2022-12-31T16:00:49.868Z,52.87
2022-12-31T16:04:28.800Z,33.35
2022-12-31T16:07:15.803Z,40.30
2022-12-31T16:10:00.852Z,34.95
2022-12-31T16:12:44.621Z,36.92
2022-12-31T16:15:30.679Z,38.53
2022-12-31T16:18:20.808Z,32.22
2022-12-31T16:21:07.096Z,44.88
2022-12-31T16:23:42.669Z,51.15
2022-12-31T16:26:17.915Z,48.58
2022-12-31T16:28:49.868Z,39.85
2022-12-31T16:31:25.639Z,45.92
2022-12-31T16:34:17.775Z,40.13
2022-12-31T16:37:43.764Z,41.83
2022-12-31T16:43:50.607Z,48.92
2022-12-31T16:46:39.288Z,34.63
2022-12-31T16:49:42.645Z,41.78
2022-12-31T16:52:39.230Z,32.05
2022-12-31T16:58:55.099Z,45.90
2022-12-31T17:02:10.624Z,40.67
2022-12-31T17:05:25.068Z,42.10
2022-12-31T17:09:01.219Z,47.20
2022-12-31T17:12:52.711Z,38.88
2022-12-31T17:16:01.590Z,49.90
2022-12-31T17:18:56.723Z,38.10
2022-12-31T17:21:39.926Z,42.53
2022-12-31T17:24:34.725Z,39.67
2022-12-31T17:27:53.590Z,53.38
2022-12-31T17:31:01.857Z,46.92
2022-12-31T17:33:55.034Z,72.43
2022-12-31T17:36:31.706Z,37.35
2022-12-31T17:43:02.372Z,35.90
2022-12-31T17:45:43.101Z,43.22
2022-12-31T17:48:35.061Z,33.78
2022-12-31T17:51:03.952Z,36.75
2022-12-31T17:53:32.905Z,34.35
2022-12-31T17:56:18.911Z,35.17
2022-12-31T17:58:53.981Z,42.20
2022-12-31T18:01:24.287Z,32.70
2022-12-31T18:03:53.668Z,34.45
2022-12-31T18:06:21.907Z,42.95
2022-12-31T18:09:02.346Z,35.55
2022-12-31T18:11:30.741Z,37.40
2022-12-31T18:14:05.707Z,37.00
2022-12-31T18:16:44.933Z,41.08
2022-12-31T18:20:04.185Z,38.65
2022-12-31T18:22:47.593Z,45.67
2022-12-31T18:25:25.653Z,42.05
2022-12-31T18:28:04.379Z,26.60
2022-12-31T18:30:39.529Z,40.97
2022-12-31T18:33:22.888Z,43.50
2022-12-31T18:36:08.902Z,32.50
2022-12-31T18:38:43.403Z,30.23
2022-12-31T18:41:28.128Z,31.98
2022-12-31T18:43:56.627Z,27.45
2022-12-31T18:46:27.871Z,29.50
2022-12-31T18:48:58.529Z,44.92
2022-12-31T18:54:14.351Z,38.67
2022-12-31T18:56:47.677Z,29.65
2022-12-31T18:59:17.240Z,25.33
2022-12-31T19:01:45.317Z,28.77
2022-12-31T19:04:14.313Z,48.47
2022-12-31T19:06:45.561Z,37.85
2022-12-31T19:09:43.278Z,37.35
2022-12-31T19:12:02.108Z,40.95
2022-12-31T19:14:35.511Z,33.80
2022-12-31T19:19:35.112Z,40.58
2022-12-31T19:22:05.180Z,34.72
2022-12-31T19:24:33.144Z,37.30
2022-12-31T19:27:27.166Z,39.97
2022-12-31T19:29:54.917Z,23.48
2022-12-31T19:32:30.540Z,51.80
2022-12-31T19:35:01.475Z,44.85
2022-12-31T19:37:54.206Z,44.35
2022-12-31T19:40:33.162Z,35.83
2022-12-31T19:43:00.960Z,32.78
2022-12-31T19:45:29.898Z,30.92
2022-12-31T19:48:03.460Z,41.58
2022-12-31T19:50:31.965Z,40.58
2022-12-31T19:53:00.711Z,42.80
2022-12-31T19:55:28.501Z,33.35
2022-12-31T19:57:56.273Z,40.28
2022-12-31T20:00:24.255Z,33.28
2022-12-31T20:02:55.031Z,33.67
2022-12-31T20:05:30.750Z,30.08
2022-12-31T20:07:58.531Z,32.53
2022-12-31T20:10:30.963Z,34.85
2022-12-31T20:12:58.944Z,31.00
2022-12-31T20:15:26.713Z,33.95
2022-12-31T20:17:57.767Z,36.70
2022-12-31T20:20:29.221Z,36.80
2022-12-31T20:22:58.009Z,38.20
2022-12-31T20:25:32.130Z,34.13
2022-12-31T20:27:59.915Z,39.53
2022-12-31T20:30:30.167Z,26.48
2022-12-31T20:33:00.839Z,30.95
2022-12-31T20:35:28.510Z,33.22
2022-12-31T20:38:03.987Z,35.75
2022-12-31T20:40:32.946Z,40.20
2022-12-31T20:43:06.136Z,26.02
2022-12-31T20:45:34.017Z,28.00
2022-12-31T20:48:01.967Z,29.50
2022-12-31T20:50:29.550Z,28.45
2022-12-31T20:53:00.145Z,31.55
2022-12-31T20:57:55.528Z,33.35
2022-12-31T21:00:23.623Z,31.58
2022-12-31T21:03:03.851Z,32.45
2022-12-31T21:05:39.637Z,25.33
2022-12-31T21:08:07.480Z,27.52
2022-12-31T21:10:36.342Z,32.38
2022-12-31T21:13:14.439Z,24.13
2022-12-31T21:15:42.785Z,21.92
2022-12-31T21:18:10.602Z,29.73
2022-12-31T21:20:38.325Z,36.75
2022-12-31T21:23:06.233Z,30.05
2022-12-31T21:25:38.986Z,32.42
2022-12-31T21:28:09.170Z,20.58
2022-12-31T21:33:11.245Z,23.33
2022-12-31T21:35:51.911Z,16.00
2022-12-31T21:38:25.829Z,29.02
2022-12-31T21:40:54.348Z,26.38
2022-12-31T21:43:24.581Z,24.35
2022-12-31T21:46:01.678Z,26.52
2022-12-31T21:48:35.892Z,21.27
2022-12-31T21:51:11.505Z,19.52
2022-12-31T21:53:42.582Z,20.00
2022-12-31T21:56:17.461Z,30.92
2022-12-31T21:59:10.262Z,36.17
2022-12-31T22:01:57.223Z,27.05
2022-12-31T22:05:00.287Z,22.15
2022-12-31T22:07:16.555Z,25.88
2022-12-31T22:10:00.602Z,21.05
2022-12-31T22:12:31.164Z,28.23
2022-12-31T22:15:15.275Z,29.65
2022-12-31T22:17:43.908Z,24.27
2022-12-31T22:20:28.285Z,25.30
2022-12-31T22:22:57.220Z,21.30
2022-12-31T22:25:25.035Z,26.25
2022-12-31T22:28:27.557Z,18.88
2022-12-31T22:30:46.060Z,16.88
2022-12-31T22:33:21.529Z,18.33
2022-12-31T22:35:58.816Z,22.65
2022-12-31T22:38:30.562Z,18.05
2022-12-31T22:41:21.684Z,22.30
2022-12-31T22:44:00.250Z,21.75
2022-12-31T22:46:31.509Z,18.63
2022-12-31T22:49:00.888Z,23.80
2022-12-31T22:51:57.630Z,17.23
2022-12-31T22:54:25.581Z,17.73
2022-12-31T22:56:56.407Z,19.15
2022-12-31T22:59:27.325Z,17.45
2022-12-31T23:02:03.659Z,27.38
2022-12-31T23:04:31.594Z,20.35
2022-12-31T23:07:02.064Z,11.77
2022-12-31T23:09:57.563Z,21.35
2022-12-31T23:12:25.434Z,15.68
2022-12-31T23:15:14.409Z,17.92
2022-12-31T23:18:02.247Z,14.73
2022-12-31T23:20:55.413Z,22.02
2022-12-31T23:23:25.762Z,11.68
2022-12-31T23:26:01.977Z,17.92
2022-12-31T23:28:32.502Z,14.55
2022-12-31T23:31:06.385Z,14.25
2022-12-31T23:33:34.397Z,15.45
2022-12-31T23:36:06.078Z,8.90
2022-12-31T23:38:33.789Z,19.50
2022-12-31T23:41:01.475Z,17.05
2022-12-31T23:43:32.170Z,12.50
2022-12-31T23:45:59.863Z,14.05
2022-12-31T23:48:29.976Z,14.10
2022-12-31T23:50:57.691Z,18.77
2022-12-31T23:53:25.754Z,13.30
2022-12-31T23:55:53.799Z,16.38
2022-12-31T23:58:22.496Z,16.65
